createdAt,value
2022-08-05T00:01:35.446Z,3.10
2022-08-05T00:04:08.261Z,4.70
2022-08-05T00:06:36.446Z,3.60
2022-08-05T00:09:05.488Z,3.80
2022-08-05T00:11:48.403Z,3.70
2022-08-05T00:14:17.854Z,4.40
2022-08-05T00:16:52.622Z,4.30
2022-08-05T00:19:23.215Z,3.40
2022-08-05T00:21:51.209Z,3.40
2022-08-05T00:24:24.675Z,3.10
2022-08-05T00:27:00.534Z,3.40
2022-08-05T00:29:37.977Z,3.10
2022-08-05T00:32:12.124Z,4.20
2022-08-05T00:35:03.593Z,3.40
2022-08-05T00:37:53.086Z,3.30
2022-08-05T00:40:28.056Z,2.40
2022-08-05T00:43:00.191Z,3.80
2022-08-05T00:45:43.083Z,3.60
2022-08-05T00:48:17.171Z,3.90
2022-08-05T00:50:46.769Z,3.00
2022-08-05T00:53:45.101Z,3.10
2022-08-05T00:56:08.637Z,4.20
2022-08-05T01:01:08.511Z,3.10
2022-08-05T01:03:40.188Z,3.40
2022-08-05T01:06:14.100Z,3.40
2022-08-05T01:08:44.478Z,3.60
2022-08-05T01:11:36.745Z,3.20
2022-08-05T01:14:32.384Z,3.80
2022-08-05T01:17:07.879Z,3.70
2022-08-05T01:20:01.118Z,4.30
2022-08-05T01:22:38.713Z,3.50
2022-08-05T01:25:24.945Z,3.90
2022-08-05T01:28:23.638Z,3.40
2022-08-05T01:31:24.309Z,3.80
2022-08-05T01:33:55.586Z,3.50
2022-08-05T01:36:28.706Z,3.90
2022-08-05T01:39:00.266Z,3.70
2022-08-05T01:41:34.764Z,3.80
2022-08-05T01:44:06.779Z,3.50
2022-08-05T01:46:42.467Z,3.50
2022-08-05T01:49:23.765Z,4.30
2022-08-05T01:51:58.949Z,3.60
2022-08-05T01:58:12.356Z,3.80
2022-08-05T02:00:13.537Z,5.10
2022-08-05T02:02:54.541Z,3.60
2022-08-05T02:05:30.427Z,3.50
2022-08-05T02:08:03.124Z,3.70
2022-08-05T02:10:40.466Z,3.80
2022-08-05T02:13:16.069Z,3.70
2022-08-05T02:15:49.154Z,4.50
2022-08-05T02:18:41.931Z,3.50
2022-08-05T02:21:15.529Z,3.50
2022-08-05T02:23:48.461Z,4.00
2022-08-05T02:26:31.265Z,3.40
2022-08-05T02:29:00.933Z,3.70
2022-08-05T02:31:35.219Z,4.60
2022-08-05T02:34:09.882Z,3.50
2022-08-05T02:36:49.745Z,3.60
2022-08-05T02:39:21.377Z,4.80
2022-08-05T02:42:00.781Z,3.60
2022-08-05T02:44:32.257Z,4.80
2022-08-05T02:47:01.930Z,3.90
2022-08-05T02:49:37.946Z,3.50
2022-08-05T02:52:25.903Z,5.10
2022-08-05T02:55:01.986Z,4.20
2022-08-05T02:58:10.102Z,4.20
2022-08-05T03:00:23.235Z,3.70
2022-08-05T03:02:57.180Z,4.20
2022-08-05T03:06:53.704Z,3.40
2022-08-05T03:08:16.547Z,3.60
2022-08-05T03:11:53.215Z,5.50
2022-08-05T03:13:52.130Z,3.70
2022-08-05T03:16:22.571Z,3.20
2022-08-05T03:18:51.167Z,3.20
2022-08-05T03:21:20.020Z,3.50
2022-08-05T03:23:50.528Z,3.30
2022-08-05T03:26:30.529Z,3.20
2022-08-05T03:29:00.763Z,4.20
2022-08-05T03:31:55.616Z,3.50
2022-08-05T03:34:20.456Z,4.30
2022-08-05T03:36:52.406Z,3.70
2022-08-05T03:39:27.245Z,3.80
2022-08-05T03:41:57.585Z,3.70
2022-08-05T03:44:28.993Z,3.40
2022-08-05T03:46:56.864Z,3.80
2022-08-05T03:49:31.215Z,3.60
2022-08-05T03:52:50.257Z,3.90
2022-08-05T03:56:06.027Z,3.10
2022-08-05T03:58:16.676Z,4.30
2022-08-05T04:00:51.707Z,3.50
2022-08-05T04:03:28.191Z,4.00
2022-08-05T04:05:59.323Z,3.90
2022-08-05T04:08:35.998Z,3.70
2022-08-05T04:11:07.445Z,3.60
2022-08-05T04:13:50.170Z,3.30
2022-08-05T04:16:25.461Z,3.80
2022-08-05T04:19:00.130Z,3.30
2022-08-05T04:22:05.106Z,3.80
2022-08-05T04:24:19.293Z,3.60
2022-08-05T04:26:51.597Z,3.90
2022-08-05T04:29:19.780Z,3.70
2022-08-05T04:31:48.487Z,3.30
2022-08-05T04:34:32.585Z,3.20
2022-08-05T04:37:03.594Z,3.30
2022-08-05T04:39:32.207Z,3.20
2022-08-05T04:42:00.314Z,3.80
2022-08-05T04:44:30.741Z,2.80
2022-08-05T04:46:59.702Z,3.50
2022-08-05T04:49:39.260Z,3.60
2022-08-05T04:52:16.587Z,3.70
2022-08-05T04:54:44.517Z,3.40
2022-08-05T04:57:13.209Z,3.20
2022-08-05T04:59:40.987Z,3.70
2022-08-05T05:02:37.255Z,4.30
2022-08-05T05:05:02.710Z,4.10
2022-08-05T05:07:32.134Z,3.50
2022-08-05T05:10:04.620Z,3.10
2022-08-05T05:12:32.829Z,2.60
2022-08-05T05:15:03.719Z,3.60
2022-08-05T05:17:55.515Z,2.90
2022-08-05T05:20:23.863Z,3.20
2022-08-05T05:23:08.261Z,2.90
2022-08-05T05:25:47.834Z,3.20
2022-08-05T05:30:43.080Z,3.00
2022-08-05T05:33:17.839Z,3.10
2022-08-05T05:35:51.900Z,3.20
2022-08-05T05:38:22.226Z,4.00
2022-08-05T05:40:56.557Z,3.20
2022-08-05T05:43:54.182Z,2.60
2022-08-05T05:46:16.098Z,3.00
2022-08-05T05:48:48.556Z,3.70
2022-08-05T05:51:25.523Z,2.80
2022-08-05T05:53:58.785Z,3.50
2022-08-05T05:56:32.656Z,3.80
2022-08-05T05:59:07.811Z,4.50
2022-08-05T06:01:39.562Z,3.00
2022-08-05T06:04:14.488Z,4.40
2022-08-05T06:06:47.439Z,3.10
2022-08-05T06:09:25.696Z,3.60
2022-08-05T06:12:05.972Z,3.30
2022-08-05T06:14:37.406Z,3.80
2022-08-05T06:17:22.271Z,3.40
2022-08-05T06:19:56.787Z,3.10
2022-08-05T06:22:34.347Z,3.20
2022-08-05T06:25:25.223Z,3.50
2022-08-05T06:28:10.813Z,3.70
2022-08-05T06:30:41.342Z,3.10
2022-08-05T06:33:10.846Z,3.30
2022-08-05T06:36:07.160Z,3.30
2022-08-05T06:38:35.980Z,3.70
2022-08-05T06:41:07.661Z,3.60
2022-08-05T06:43:58.162Z,3.60
2022-08-05T06:46:30.104Z,2.80
2022-08-05T06:49:01.397Z,3.30
2022-08-05T06:51:31.215Z,3.80
2022-08-05T06:54:00.448Z,3.60
2022-08-05T06:56:34.420Z,3.00
2022-08-05T06:59:09.656Z,3.40
2022-08-05T07:01:40.759Z,3.80
2022-08-05T07:04:09.979Z,3.70
2022-08-05T07:06:37.486Z,3.10
2022-08-05T07:09:05.099Z,4.60
2022-08-05T07:11:36.979Z,3.10
2022-08-05T07:14:29.261Z,3.50
2022-08-05T07:18:02.352Z,5.00
2022-08-05T07:20:34.163Z,5.00
2022-08-05T07:22:41.977Z,3.50
2022-08-05T07:28:03.745Z,4.80
2022-08-05T07:33:10.631Z,5.50
2022-08-05T07:36:03.870Z,8.20
2022-08-05T07:38:42.602Z,5.00
2022-08-05T07:42:08.761Z,4.90
2022-08-05T07:44:14.070Z,6.70
2022-08-05T07:46:48.246Z,10.50
2022-08-05T07:49:18.563Z,5.00
2022-08-05T07:51:53.306Z,3.50
2022-08-05T07:54:30.671Z,5.70
2022-08-05T07:57:50.564Z,5.90
2022-08-05T07:59:51.260Z,4.40
2022-08-05T08:02:26.637Z,5.00
2022-08-05T08:04:58.952Z,4.80
2022-08-05T08:09:55.800Z,3.70
2022-08-05T08:12:37.082Z,3.60
2022-08-05T08:15:15.564Z,3.60
2022-08-05T08:17:49.949Z,3.80
2022-08-05T08:20:43.477Z,3.50
2022-08-05T08:24:01.846Z,4.30
2022-08-05T08:26:02.745Z,3.70
2022-08-05T08:28:36.926Z,3.80
2022-08-05T08:31:20.737Z,4.40
2022-08-05T08:33:51.735Z,4.20
2022-08-05T08:36:38.778Z,3.50
2022-08-05T08:39:15.098Z,3.60
2022-08-05T08:41:52.200Z,3.60
2022-08-05T08:45:19.602Z,4.20
2022-08-05T08:48:06.111Z,4.00
2022-08-05T08:50:32.732Z,4.20
2022-08-05T08:53:12.194Z,3.80
2022-08-05T08:56:02.848Z,4.30
2022-08-05T08:58:43.112Z,3.80
2022-08-05T09:01:15.848Z,4.30
2022-08-05T09:03:48.195Z,5.00
2022-08-05T09:06:24.238Z,4.10
2022-08-05T09:09:02.319Z,4.20
2022-08-05T09:11:53.166Z,3.50
2022-08-05T09:14:56.692Z,4.40
2022-08-05T09:17:41.294Z,6.40
2022-08-05T09:20:06.534Z,4.80
2022-08-05T09:23:05.039Z,4.00
2022-08-05T09:26:02.277Z,4.80
2022-08-05T09:28:32.134Z,3.90
2022-08-05T09:31:18.131Z,4.80
2022-08-05T09:34:01.603Z,4.50
2022-08-05T09:36:56.100Z,4.60
2022-08-05T09:39:41.670Z,3.80
2022-08-05T09:42:24.076Z,4.30
2022-08-05T09:45:00.433Z,3.40
2022-08-05T09:47:48.511Z,4.60
2022-08-05T09:50:38.253Z,4.70
2022-08-05T09:53:12.019Z,4.10
2022-08-05T09:56:03.798Z,4.10
2022-08-05T09:58:32.692Z,4.40
2022-08-05T10:01:01.768Z,4.10
2022-08-05T10:04:00.510Z,4.20
2022-08-05T10:06:30.955Z,4.00
2022-08-05T10:09:27.693Z,3.70
2022-08-05T10:12:31.403Z,4.00
2022-08-05T10:15:27.792Z,3.20
2022-08-05T10:18:17.799Z,4.70
2022-08-05T10:20:49.673Z,3.90
2022-08-05T10:23:55.899Z,4.80
2022-08-05T10:26:14.173Z,5.00
2022-08-05T10:28:46.589Z,4.00
2022-08-05T10:32:55.176Z,4.30
2022-08-05T10:34:14.478Z,4.90
2022-08-05T10:36:56.087Z,3.60
2022-08-05T10:39:59.290Z,4.30
2022-08-05T10:42:33.848Z,4.00
2022-08-05T10:47:47.116Z,3.50
2022-08-05T10:51:00.152Z,6.20
2022-08-05T10:53:45.177Z,4.60
2022-08-05T10:56:25.119Z,4.30
2022-08-05T10:58:56.395Z,3.80
2022-08-05T11:01:54.647Z,6.40
2022-08-05T11:04:47.799Z,4.20
2022-08-05T11:07:32.945Z,4.70
2022-08-05T11:10:37.023Z,4.60
2022-08-05T11:13:59.071Z,4.40
2022-08-05T11:16:56.735Z,3.80
2022-08-05T11:20:11.400Z,6.50
2022-08-05T11:24:03.383Z,5.10
2022-08-05T11:26:34.019Z,4.90
2022-08-05T11:29:13.324Z,5.00
2022-08-05T11:32:18.100Z,3.80
2022-08-05T11:35:15.427Z,3.70
2022-08-05T11:38:29.937Z,4.30
2022-08-05T11:41:58.005Z,4.30
2022-08-05T11:48:03.270Z,4.30
2022-08-05T11:50:42.495Z,5.20
2022-08-05T11:53:13.542Z,4.20
2022-08-05T11:56:00.394Z,4.10
2022-08-05T11:58:40.120Z,3.80
2022-08-05T12:01:26.540Z,3.70
2022-08-05T12:04:00.127Z,6.30
2022-08-05T12:06:38.431Z,3.60
2022-08-05T12:09:22.690Z,4.80
2022-08-05T12:12:16.051Z,4.10
2022-08-05T12:14:51.922Z,4.80
2022-08-05T12:18:00.784Z,5.00
2022-08-05T12:20:27.813Z,6.90
2022-08-05T12:23:12.419Z,4.50
2022-08-05T12:25:51.471Z,4.20
2022-08-05T12:28:38.097Z,3.80
2022-08-05T12:31:08.860Z,4.90
2022-08-05T12:33:38.609Z,4.00
2022-08-05T12:36:09.615Z,4.10
2022-08-05T12:38:41.101Z,4.30
2022-08-05T12:41:13.477Z,4.10
2022-08-05T12:43:56.516Z,4.50
2022-08-05T12:46:29.359Z,6.00
2022-08-05T12:49:16.895Z,3.70
2022-08-05T12:52:12.390Z,5.00
2022-08-05T12:54:42.312Z,4.00
2022-08-05T12:57:13.003Z,5.30
2022-08-05T13:02:03.286Z,4.60
2022-08-05T13:02:43.891Z,5.10
2022-08-05T13:05:18.903Z,5.10
2022-08-05T13:07:59.310Z,5.40
2022-08-05T13:10:37.460Z,4.30
2022-08-05T13:14:04.539Z,4.10
2022-08-05T13:16:17.230Z,4.50
2022-08-05T13:18:58.483Z,4.50
2022-08-05T13:21:28.319Z,4.40
2022-08-05T13:24:09.386Z,4.60
2022-08-05T13:26:50.737Z,5.30
2022-08-05T13:29:37.269Z,5.20
2022-08-05T13:32:10.474Z,4.90
2022-08-05T13:34:43.811Z,4.20
2022-08-05T13:37:13.634Z,4.70
2022-08-05T13:40:16.090Z,5.10
2022-08-05T13:42:36.122Z,4.90
2022-08-05T13:45:06.351Z,6.00
2022-08-05T13:48:09.528Z,4.80
2022-08-05T13:50:25.867Z,3.90
2022-08-05T13:52:53.930Z,7.20
2022-08-05T13:55:41.070Z,5.20
2022-08-05T13:58:15.200Z,4.60
2022-08-05T14:01:01.661Z,5.90
2022-08-05T14:03:31.323Z,5.80
2022-08-05T14:06:26.289Z,4.80
2022-08-05T14:09:04.230Z,4.70
2022-08-05T14:12:04.229Z,5.30
2022-08-05T14:14:40.427Z,4.80
2022-08-05T14:17:18.317Z,4.50
2022-08-05T14:20:00.895Z,4.20
2022-08-05T14:22:41.130Z,4.20
2022-08-05T14:25:30.314Z,4.50
2022-08-05T14:28:05.190Z,5.60
2022-08-05T14:30:41.261Z,4.90
2022-08-05T14:33:23.204Z,4.60
2022-08-05T14:36:05.190Z,4.70
2022-08-05T14:38:37.660Z,4.20
2022-08-05T14:41:11.354Z,3.90
2022-08-05T14:43:59.606Z,4.60
2022-08-05T14:46:40.954Z,5.80
2022-08-05T14:49:14.874Z,5.20
2022-08-05T14:51:47.070Z,4.20
2022-08-05T14:54:28.224Z,3.50
2022-08-05T14:57:02.685Z,4.10
2022-08-05T14:59:36.004Z,4.10
2022-08-05T15:02:15.881Z,4.40
2022-08-05T15:04:47.745Z,4.90
2022-08-05T15:08:11.542Z,4.30
2022-08-05T15:10:11.070Z,4.00
2022-08-05T15:13:00.214Z,4.60
2022-08-05T15:15:55.187Z,4.00
2022-08-05T15:18:21.650Z,5.00
2022-08-05T15:20:49.792Z,3.50
2022-08-05T15:23:20.470Z,4.40
2022-08-05T15:25:53.299Z,5.30
2022-08-05T15:28:29.396Z,4.80
2022-08-05T15:30:59.100Z,4.40
2022-08-05T15:34:05.787Z,4.30
2022-08-05T15:36:24.468Z,3.50
2022-08-05T15:40:59.023Z,4.40
2022-08-05T15:41:55.911Z,6.10
2022-08-05T15:44:30.363Z,4.10
2022-08-05T15:47:04.375Z,5.20
2022-08-05T15:49:53.411Z,3.70
2022-08-05T15:55:16.048Z,4.30
2022-08-05T15:57:46.071Z,4.70
2022-08-05T16:00:32.673Z,3.80
2022-08-05T16:03:05.808Z,4.70
2022-08-05T16:05:33.586Z,4.10
2022-08-05T16:08:03.307Z,3.60
2022-08-05T16:10:32.739Z,5.50
2022-08-05T16:13:00.478Z,7.80
2022-08-05T16:15:32.655Z,4.40
2022-08-05T16:18:04.383Z,4.50
2022-08-05T16:20:36.949Z,6.00
2022-08-05T16:23:05.400Z,4.40
2022-08-05T16:25:37.627Z,4.10
2022-08-05T16:28:10.259Z,4.00
2022-08-05T16:30:38.437Z,4.90
2022-08-05T16:33:06.648Z,5.40
2022-08-05T16:35:34.654Z,5.30
2022-08-05T16:38:18.848Z,5.80
2022-08-05T16:41:00.285Z,4.20
2022-08-05T16:43:33.936Z,5.40
2022-08-05T16:46:12.793Z,6.60
2022-08-05T16:48:41.049Z,6.30
2022-08-05T16:51:10.856Z,5.70
2022-08-05T16:54:04.955Z,6.70
2022-08-05T16:56:33.907Z,4.70
2022-08-05T16:59:08.089Z,6.60
2022-08-05T17:01:53.978Z,6.20
2022-08-05T17:04:26.832Z,5.10
2022-08-05T17:07:53.019Z,6.10
2022-08-05T17:10:23.240Z,6.10
2022-08-05T17:12:58.139Z,5.10
2022-08-05T17:15:47.915Z,5.90
2022-08-05T17:18:17.093Z,4.90
2022-08-05T17:20:47.137Z,5.90
2022-08-05T17:24:06.032Z,5.10
2022-08-05T17:26:02.883Z,4.60
2022-08-05T17:28:30.784Z,4.60
2022-08-05T17:30:58.954Z,4.90
2022-08-05T17:33:38.930Z,5.30
2022-08-05T17:36:33.881Z,6.30
2022-08-05T17:39:06.244Z,5.20
2022-08-05T17:42:17.810Z,3.60
2022-08-05T17:44:41.361Z,4.00
2022-08-05T17:47:23.736Z,4.30
2022-08-05T17:50:00.399Z,4.10
2022-08-05T17:52:33.525Z,4.10
2022-08-05T17:55:03.154Z,4.20
2022-08-05T17:57:33.941Z,4.00
2022-08-05T18:00:08.876Z,4.50
2022-08-05T18:02:37.219Z,4.80
2022-08-05T18:05:06.998Z,4.10
2022-08-05T18:07:41.477Z,7.00
2022-08-05T18:10:20.601Z,6.80
2022-08-05T18:15:17.390Z,4.70
2022-08-05T18:20:31.839Z,4.20
2022-08-05T18:23:12.284Z,4.30
2022-08-05T18:25:45.467Z,4.10
2022-08-05T18:28:17.556Z,4.10
2022-08-05T18:30:50.774Z,3.70
2022-08-05T18:33:23.103Z,4.10
2022-08-05T18:36:03.849Z,3.60
2022-08-05T18:38:37.141Z,3.90
2022-08-05T18:41:56.219Z,4.50
2022-08-05T18:43:55.928Z,4.50
2022-08-05T18:46:28.990Z,3.50
2022-08-05T18:48:56.919Z,3.70
2022-08-05T18:52:05.669Z,3.80
2022-08-05T18:54:32.377Z,3.20
2022-08-05T18:57:01.495Z,3.70
2022-08-05T18:59:43.923Z,3.70
2022-08-05T19:02:28.197Z,4.00
2022-08-05T19:05:02.459Z,4.50
2022-08-05T19:07:50.820Z,3.80
2022-08-05T19:10:28.496Z,3.40
2022-08-05T19:12:58.015Z,4.70
2022-08-05T19:15:59.900Z,4.50
2022-08-05T19:18:21.802Z,4.60
2022-08-05T19:20:52.983Z,5.60
2022-08-05T19:24:04.171Z,4.30
2022-08-05T19:26:09.512Z,3.90
2022-08-05T19:28:42.252Z,3.50
2022-08-05T19:31:19.389Z,4.90
2022-08-05T19:33:56.357Z,4.20
2022-08-05T19:36:26.731Z,4.70
2022-08-05T19:39:01.077Z,3.20
2022-08-05T19:41:58.410Z,3.50
2022-08-05T19:44:20.000Z,4.00
2022-08-05T19:46:50.178Z,3.60
2022-08-05T19:49:19.167Z,4.20
2022-08-05T19:54:35.721Z,4.20
2022-08-05T19:57:09.120Z,5.40
2022-08-05T19:59:56.486Z,4.80
2022-08-05T20:02:31.422Z,4.20
2022-08-05T20:05:00.251Z,4.70
2022-08-05T20:07:46.887Z,4.70
2022-08-05T20:10:22.385Z,4.20
2022-08-05T20:12:56.727Z,3.90
2022-08-05T20:15:51.796Z,3.80
2022-08-05T20:18:32.808Z,6.50
2022-08-05T20:21:07.143Z,4.90
2022-08-05T20:23:50.933Z,3.80
2022-08-05T20:26:24.874Z,4.90
2022-08-05T20:28:56.338Z,4.20
2022-08-05T20:31:28.762Z,4.50
2022-08-05T20:34:12.896Z,4.40
2022-08-05T20:36:44.134Z,4.10
2022-08-05T20:39:16.376Z,3.90
2022-08-05T20:41:49.225Z,3.60
2022-08-05T20:44:30.242Z,3.90
2022-08-05T20:47:01.760Z,5.20
2022-08-05T20:49:37.804Z,4.50
2022-08-05T20:52:12.251Z,3.90
2022-08-05T20:55:54.294Z,4.60
2022-08-05T20:57:42.050Z,5.10
2022-08-05T21:00:41.120Z,5.80
2022-08-05T21:03:10.577Z,7.70
2022-08-05T21:05:53.771Z,4.50
2022-08-05T21:08:42.361Z,5.20
2022-08-05T21:12:09.788Z,4.10
2022-08-05T21:14:13.259Z,3.70
2022-08-05T21:16:49.718Z,5.40
2022-08-05T21:19:26.089Z,4.70
2022-08-05T21:22:02.277Z,5.30
2022-08-05T21:24:37.877Z,4.30
2022-08-05T21:27:11.397Z,4.70
2022-08-05T21:29:48.561Z,4.40
2022-08-05T21:32:24.445Z,4.90
2022-08-05T21:35:08.850Z,5.50
2022-08-05T21:37:53.275Z,4.50
2022-08-05T21:40:25.536Z,5.80
2022-08-05T21:42:55.196Z,5.60
2022-08-05T21:45:56.500Z,5.60
2022-08-05T21:48:20.137Z,6.40
2022-08-05T21:50:54.349Z,7.30
2022-08-05T21:53:27.557Z,5.10
2022-08-05T21:56:05.973Z,7.60
2022-08-05T21:58:48.410Z,6.10
2022-08-05T22:01:29.576Z,7.00
2022-08-05T22:04:05.717Z,4.90
2022-08-05T22:06:43.509Z,7.50
2022-08-05T22:09:21.138Z,6.30
2022-08-05T22:11:50.565Z,6.60
2022-08-05T22:14:37.187Z,6.40
2022-08-05T22:17:10.629Z,8.10
2022-08-05T22:20:01.229Z,5.60
2022-08-05T22:22:53.659Z,8.40
2022-08-05T22:26:10.774Z,9.00
2022-08-05T22:28:37.801Z,10.60
2022-08-05T22:31:11.156Z,10.20
2022-08-05T22:33:56.542Z,9.60
2022-08-05T22:36:29.908Z,10.20
2022-08-05T22:39:04.398Z,10.60
2022-08-05T22:42:10.737Z,8.60
2022-08-05T22:44:29.795Z,11.40
2022-08-05T22:46:58.745Z,10.90
2022-08-05T22:50:19.118Z,9.30
2022-08-05T22:52:30.465Z,9.90
2022-08-05T22:55:01.551Z,9.30
2022-08-05T22:57:34.242Z,10.30
2022-08-05T23:02:46.316Z,9.10
2022-08-05T23:05:16.862Z,7.60
2022-08-05T23:07:48.876Z,8.50
2022-08-05T23:10:24.071Z,10.70
2022-08-05T23:12:54.437Z,9.10
2022-08-05T23:15:29.043Z,7.60
2022-08-05T23:18:03.658Z,7.90
2022-08-05T23:20:37.311Z,9.00
2022-08-05T23:23:08.235Z,11.80
2022-08-05T23:25:52.436Z,10.90
2022-08-05T23:28:28.743Z,8.60
2022-08-05T23:31:15.704Z,7.40
2022-08-05T23:34:04.281Z,9.20
2022-08-05T23:36:44.342Z,8.30
2022-08-05T23:39:31.982Z,9.80
2022-08-05T23:42:01.187Z,10.30
2022-08-05T23:44:31.359Z,9.40
2022-08-05T23:47:02.518Z,9.90
2022-08-05T23:49:45.517Z,7.70
2022-08-05T23:52:30.489Z,7.40
2022-08-05T23:55:02.404Z,6.40
2022-08-05T23:57:33.498Z,9.30
